createdAt,value
2018-09-09T00:00:29.623Z,93.50
2018-09-09T00:02:58.119Z,93.40
2018-09-09T00:05:26.537Z,93.50
2018-09-09T00:07:54.993Z,93.70
2018-09-09T00:10:23.424Z,93.90
2018-09-09T00:12:51.918Z,94.00
2018-09-09T00:15:20.402Z,93.90
2018-09-09T00:17:48.807Z,94.20
2018-09-09T00:20:17.308Z,94.30
2018-09-09T00:22:45.881Z,94.40
2018-09-09T00:25:14.290Z,94.30
2018-09-09T00:27:42.717Z,94.30
2018-09-09T00:30:11.164Z,94.10
2018-09-09T00:32:39.586Z,94.10
2018-09-09T00:35:08.146Z,94.20
2018-09-09T00:37:36.644Z,94.20
2018-09-09T00:40:05.176Z,94.10
2018-09-09T00:42:33.683Z,94.20
2018-09-09T00:45:02.110Z,94.20
2018-09-09T00:47:30.551Z,94.30
2018-09-09T00:50:04.406Z,94.50
2018-09-09T00:52:38.246Z,94.20
2018-09-09T00:55:06.705Z,94.60
2018-09-09T00:57:35.874Z,94.20
2018-09-09T01:00:04.481Z,94.20
2018-09-09T01:02:32.889Z,94.30
2018-09-09T01:05:01.400Z,94.50
2018-09-09T01:07:30.849Z,94.60
2018-09-09T01:09:59.263Z,94.40
2018-09-09T01:12:27.781Z,94.80
2018-09-09T01:14:56.256Z,94.60
2018-09-09T01:17:24.773Z,94.60
2018-09-09T01:19:53.211Z,94.80
2018-09-09T01:22:21.664Z,94.90
2018-09-09T01:24:50.038Z,95.00
2018-09-09T01:27:18.506Z,94.70
2018-09-09T01:29:46.968Z,94.80
2018-09-09T01:32:15.377Z,94.60
2018-09-09T01:34:43.805Z,94.60
2018-09-09T01:37:12.274Z,94.60
2018-09-09T01:39:40.685Z,94.70
2018-09-09T01:42:09.139Z,94.60
2018-09-09T01:44:37.589Z,95.20
2018-09-09T01:47:06.133Z,95.10
2018-09-09T01:49:34.545Z,95.10
2018-09-09T01:52:03.028Z,95.00
2018-09-09T01:54:31.519Z,94.80
2018-09-09T01:56:59.968Z,95.10
2018-09-09T01:59:28.427Z,95.10
2018-09-09T02:01:56.846Z,95.30
2018-09-09T02:04:25.305Z,94.90
2018-09-09T02:06:53.792Z,95.00
2018-09-09T02:09:22.228Z,95.20
2018-09-09T02:11:50.715Z,95.20
2018-09-09T02:14:19.114Z,95.30
2018-09-09T02:16:47.577Z,95.10
2018-09-09T02:19:15.974Z,95.00
2018-09-09T02:21:44.420Z,95.10
2018-09-09T02:24:12.867Z,94.80
2018-09-09T02:26:41.310Z,94.90
2018-09-09T02:29:10.483Z,95.10
2018-09-09T02:31:38.859Z,95.10
2018-09-09T02:34:07.509Z,94.90
2018-09-09T02:36:35.922Z,95.40
2018-09-09T02:39:06.030Z,95.20
2018-09-09T02:41:34.503Z,94.90
2018-09-09T02:44:02.923Z,95.10
2018-09-09T02:46:31.369Z,95.00
2018-09-09T02:48:59.866Z,95.40
2018-09-09T02:51:28.301Z,95.00
2018-09-09T02:53:56.764Z,95.60
2018-09-09T02:56:25.223Z,95.60
2018-09-09T02:58:53.741Z,95.70
2018-09-09T03:01:22.311Z,95.50
2018-09-09T03:03:50.697Z,95.80
2018-09-09T03:06:19.199Z,95.70
2018-09-09T03:08:47.731Z,95.50
2018-09-09T03:11:16.481Z,95.40
2018-09-09T03:13:45.959Z,95.60
2018-09-09T03:16:14.488Z,95.60
2018-09-09T03:18:43.607Z,95.70
2018-09-09T03:21:12.127Z,96.00
2018-09-09T03:23:40.582Z,96.10
2018-09-09T03:26:09.020Z,95.90
2018-09-09T03:28:37.472Z,96.00
2018-09-09T03:31:05.914Z,96.20
2018-09-09T03:33:34.331Z,96.20
2018-09-09T03:36:02.813Z,96.10
2018-09-09T03:38:31.234Z,96.20
2018-09-09T03:40:59.794Z,96.40
2018-09-09T03:43:28.376Z,96.40
2018-09-09T03:45:56.776Z,96.30
2018-09-09T03:48:25.236Z,96.80
2018-09-09T03:50:53.824Z,96.80
2018-09-09T03:53:22.337Z,96.60
2018-09-09T03:55:50.745Z,96.70
2018-09-09T03:58:19.248Z,96.70
2018-09-09T04:00:47.781Z,97.00
2018-09-09T04:03:16.275Z,97.20
2018-09-09T04:05:44.676Z,96.90
2018-09-09T04:08:13.123Z,96.90
2018-09-09T04:10:42.129Z,97.20
2018-09-09T04:13:10.605Z,96.90
2018-09-09T04:15:39.108Z,97.50
2018-09-09T04:18:07.531Z,97.30
2018-09-09T04:20:35.949Z,96.90
2018-09-09T04:23:04.413Z,96.90
2018-09-09T04:25:32.859Z,96.90
2018-09-09T04:28:01.332Z,96.90
2018-09-09T04:30:29.808Z,96.70
2018-09-09T04:32:58.232Z,96.60
2018-09-09T04:35:27.424Z,96.90
2018-09-09T04:37:55.867Z,96.90
2018-09-09T04:40:24.313Z,96.70
2018-09-09T04:42:53.208Z,96.80
2018-09-09T04:45:21.744Z,96.90
2018-09-09T04:47:50.319Z,96.90
2018-09-09T04:50:19.369Z,96.90
2018-09-09T04:52:47.770Z,96.70
2018-09-09T04:55:16.189Z,96.90
2018-09-09T04:57:44.664Z,96.90
2018-09-09T05:00:13.114Z,96.90
2018-09-09T05:02:41.552Z,96.90
2018-09-09T05:05:10.077Z,96.60
2018-09-09T05:07:38.578Z,96.90
2018-09-09T05:10:07.075Z,96.90
2018-09-09T05:12:35.520Z,96.80
2018-09-09T05:15:04.050Z,96.90
2018-09-09T05:17:32.629Z,96.80
2018-09-09T05:20:01.053Z,96.90
2018-09-09T05:22:29.664Z,97.10
2018-09-09T05:24:58.164Z,97.10
2018-09-09T05:27:26.594Z,96.90
2018-09-09T05:29:55.019Z,97.10
2018-09-09T05:32:23.449Z,96.90
2018-09-09T05:34:51.957Z,97.60
2018-09-09T05:37:20.372Z,96.90
2018-09-09T05:39:49.368Z,96.90
2018-09-09T05:42:18.733Z,96.90
2018-09-09T05:44:47.195Z,97.30
2018-09-09T05:47:19.675Z,97.20
2018-09-09T05:49:48.253Z,97.20
2018-09-09T05:52:17.542Z,97.40
2018-09-09T05:54:46.425Z,97.10
2018-09-09T05:57:14.869Z,97.10
2018-09-09T05:59:43.292Z,97.20
2018-09-09T06:02:11.798Z,97.20
2018-09-09T06:04:40.367Z,96.90
2018-09-09T06:07:09.008Z,96.90
2018-09-09T06:09:37.415Z,96.90
2018-09-09T06:12:06.000Z,97.20
2018-09-09T06:14:34.633Z,96.90
2018-09-09T06:17:04.421Z,97.00
2018-09-09T06:19:32.853Z,97.00
2018-09-09T06:22:01.704Z,97.20
2018-09-09T06:24:30.152Z,97.00
2018-09-09T06:26:58.700Z,97.00
2018-09-09T06:29:28.018Z,97.10
2018-09-09T06:31:56.481Z,97.00
2018-09-09T06:34:24.909Z,96.80
2018-09-09T06:36:53.288Z,97.10
2018-09-09T06:39:21.695Z,96.90
2018-09-09T06:41:50.226Z,97.10
2018-09-09T06:44:18.691Z,96.80
2018-09-09T06:46:47.188Z,96.90
2018-09-09T06:49:15.591Z,96.70
2018-09-09T06:51:44.006Z,96.50
2018-09-09T06:54:12.462Z,96.80
2018-09-09T06:56:40.892Z,96.70
2018-09-09T06:59:09.325Z,97.10
2018-09-09T07:01:37.774Z,96.70
2018-09-09T07:04:06.396Z,96.70
2018-09-09T07:06:34.820Z,96.60
2018-09-09T07:09:03.668Z,96.50
2018-09-09T07:11:32.193Z,96.50
2018-09-09T07:14:00.592Z,96.30
2018-09-09T07:16:29.198Z,96.60
2018-09-09T07:18:57.659Z,96.40
2018-09-09T07:21:26.137Z,95.90
2018-09-09T07:23:54.604Z,95.70
2018-09-09T07:26:23.121Z,95.50
2018-09-09T07:28:51.575Z,95.40
2018-09-09T07:31:20.130Z,95.30
2018-09-09T07:33:48.647Z,95.30
2018-09-09T07:36:17.122Z,95.20
2018-09-09T07:38:45.596Z,95.00
2018-09-09T07:41:14.087Z,95.00
2018-09-09T07:43:42.620Z,94.70
2018-09-09T07:46:11.105Z,95.10
2018-09-09T07:48:39.557Z,94.50
2018-09-09T07:51:08.052Z,94.30
2018-09-09T07:53:36.469Z,94.10
2018-09-09T07:56:05.428Z,94.10
2018-09-09T07:58:33.845Z,94.30
2018-09-09T08:01:02.407Z,93.60
2018-09-09T08:03:30.823Z,93.80
2018-09-09T08:05:59.295Z,93.90
2018-09-09T08:08:27.739Z,94.00
2018-09-09T08:10:56.205Z,94.10
2018-09-09T08:13:24.689Z,94.20
2018-09-09T08:15:53.217Z,94.20
2018-09-09T08:18:21.629Z,94.00
2018-09-09T08:20:50.114Z,94.20
2018-09-09T08:23:18.557Z,92.10
2018-09-09T08:25:46.983Z,92.70
2018-09-09T08:28:15.495Z,92.40
2018-09-09T08:30:43.991Z,92.50
2018-09-09T08:33:12.456Z,91.90
2018-09-09T08:35:40.896Z,91.60
2018-09-09T08:38:09.343Z,91.70
2018-09-09T08:40:37.830Z,91.90
2018-09-09T08:43:06.292Z,92.10
2018-09-09T08:45:34.764Z,90.50
2018-09-09T08:48:03.267Z,90.20
2018-09-09T08:50:31.806Z,90.80
2018-09-09T08:53:00.198Z,91.10
2018-09-09T08:55:28.650Z,89.30
2018-09-09T08:57:57.058Z,90.00
2018-09-09T09:00:25.533Z,87.80
2018-09-09T09:02:54.001Z,86.80
2018-09-09T09:05:22.528Z,88.50
2018-09-09T09:07:51.057Z,81.60
2018-09-09T09:10:19.739Z,81.60
2018-09-09T09:12:48.204Z,79.70
2018-09-09T09:15:16.676Z,78.50
2018-09-09T09:17:45.148Z,77.30
2018-09-09T09:20:13.590Z,76.30
2018-09-09T09:22:42.085Z,77.70
2018-09-09T09:25:10.531Z,74.90
2018-09-09T09:27:38.999Z,74.30
2018-09-09T09:30:07.497Z,75.90
2018-09-09T09:32:35.903Z,73.40
2018-09-09T09:35:04.413Z,72.30
2018-09-09T09:37:32.856Z,69.80
2018-09-09T09:40:01.284Z,73.60
2018-09-09T09:42:29.856Z,72.40
2018-09-09T09:44:58.308Z,72.00
2018-09-09T09:47:26.747Z,71.60
2018-09-09T09:49:55.206Z,72.90
2018-09-09T09:52:23.718Z,73.10
2018-09-09T09:54:52.234Z,72.20
2018-09-09T09:57:20.683Z,71.50
2018-09-09T09:59:49.166Z,71.60
2018-09-09T10:02:17.591Z,70.50
2018-09-09T10:04:46.117Z,70.00
2018-09-09T10:07:14.525Z,70.00
2018-09-09T10:09:42.941Z,66.40
2018-09-09T10:12:11.363Z,67.90
2018-09-09T10:14:39.797Z,67.00
2018-09-09T10:17:08.263Z,66.80
2018-09-09T10:19:36.724Z,66.90
2018-09-09T10:22:05.271Z,64.50
2018-09-09T10:24:33.699Z,66.10
2018-09-09T10:27:02.268Z,62.20
2018-09-09T10:29:30.748Z,61.70
2018-09-09T10:31:59.257Z,61.30
2018-09-09T10:34:28.156Z,59.90
2018-09-09T10:36:56.630Z,60.70
2018-09-09T10:39:25.040Z,61.40
2018-09-09T10:41:53.574Z,61.90
2018-09-09T10:44:22.040Z,60.80
2018-09-09T10:46:50.597Z,61.70
2018-09-09T10:49:20.526Z,60.80
2018-09-09T10:51:49.024Z,61.30
2018-09-09T10:54:17.464Z,61.60
2018-09-09T10:56:45.919Z,63.90
2018-09-09T10:59:14.402Z,64.10
2018-09-09T11:01:42.846Z,65.40
2018-09-09T11:04:11.340Z,66.30
2018-09-09T11:06:39.864Z,66.50
2018-09-09T11:09:09.143Z,67.40
2018-09-09T11:11:37.573Z,66.00
2018-09-09T11:14:06.097Z,65.50
2018-09-09T11:16:34.566Z,65.40
2018-09-09T11:19:03.080Z,66.60
2018-09-09T11:21:31.491Z,68.00
2018-09-09T11:24:00.615Z,68.70
2018-09-09T11:26:29.236Z,67.90
2018-09-09T11:28:57.769Z,68.70
2018-09-09T11:31:26.246Z,66.60
2018-09-09T11:34:00.235Z,67.50
2018-09-09T11:36:28.662Z,66.70
2018-09-09T11:38:57.078Z,66.80
2018-09-09T11:41:25.518Z,67.80
2018-09-09T11:43:54.069Z,67.60
2018-09-09T11:46:22.484Z,67.60
2018-09-09T11:48:50.990Z,66.60
2018-09-09T11:51:19.442Z,66.60
2018-09-09T11:53:47.996Z,67.60
2018-09-09T11:56:16.558Z,66.20
2018-09-09T11:58:45.094Z,66.10
2018-09-09T12:01:13.580Z,67.40
2018-09-09T12:03:42.046Z,65.50
2018-09-09T12:06:10.496Z,67.40
2018-09-09T12:08:38.952Z,68.00
2018-09-09T12:11:07.375Z,68.80
2018-09-09T12:13:35.856Z,66.60
2018-09-09T12:16:04.492Z,67.40
2018-09-09T12:18:32.956Z,68.30
2018-09-09T12:21:01.492Z,69.50
2018-09-09T12:23:36.763Z,68.40
2018-09-09T12:26:05.431Z,68.00
2018-09-09T12:28:33.959Z,69.40
2018-09-09T12:31:02.466Z,68.10
2018-09-09T12:33:30.960Z,69.90
2018-09-09T12:35:59.406Z,71.30
2018-09-09T12:38:27.874Z,69.40
2018-09-09T12:40:56.300Z,70.80
2018-09-09T12:43:30.116Z,70.10
2018-09-09T12:46:04.051Z,72.00
2018-09-09T12:48:37.785Z,72.00
2018-09-09T12:51:06.229Z,70.70
2018-09-09T12:53:34.681Z,70.10
2018-09-09T12:56:03.134Z,73.20
2018-09-09T12:58:31.550Z,70.90
2018-09-09T13:00:59.965Z,70.20
2018-09-09T13:03:28.460Z,70.60
2018-09-09T13:05:56.859Z,69.90
2018-09-09T13:08:25.345Z,68.70
2018-09-09T13:10:53.892Z,68.30
2018-09-09T13:13:22.347Z,68.80
2018-09-09T13:15:50.778Z,67.60
2018-09-09T13:18:20.061Z,66.60
2018-09-09T13:20:48.510Z,64.60
2018-09-09T13:23:16.987Z,64.60
2018-09-09T13:25:45.466Z,66.30
2018-09-09T13:28:14.026Z,65.00
2018-09-09T13:30:42.636Z,60.40
2018-09-09T13:33:11.124Z,60.50
2018-09-09T13:35:39.604Z,61.40
2018-09-09T13:38:08.081Z,61.00
2018-09-09T13:40:36.590Z,60.60
2018-09-09T13:43:05.135Z,60.10
2018-09-09T13:45:33.666Z,59.80
2018-09-09T13:48:02.285Z,60.70
2018-09-09T13:50:30.729Z,59.50
2018-09-09T13:52:59.217Z,59.50
2018-09-09T13:55:27.675Z,59.60
2018-09-09T13:57:56.112Z,58.30
2018-09-09T14:00:24.574Z,58.40
2018-09-09T14:02:53.024Z,59.30
2018-09-09T14:05:21.514Z,57.80
2018-09-09T14:07:50.112Z,59.70
2018-09-09T14:10:18.563Z,60.10
2018-09-09T14:12:47.039Z,61.10
2018-09-09T14:15:15.610Z,60.30
2018-09-09T14:17:44.048Z,60.30
2018-09-09T14:20:12.501Z,59.20
2018-09-09T14:22:40.960Z,59.60
2018-09-09T14:25:09.461Z,59.80
2018-09-09T14:27:37.942Z,62.50
2018-09-09T14:30:06.463Z,60.10
2018-09-09T14:32:34.974Z,61.50
2018-09-09T14:35:03.500Z,61.00
2018-09-09T14:37:31.984Z,60.20
2018-09-09T14:40:00.491Z,60.00
2018-09-09T14:42:28.924Z,62.00
2018-09-09T14:44:57.443Z,61.80
2018-09-09T14:47:25.926Z,60.60
2018-09-09T14:49:54.373Z,59.40
2018-09-09T14:52:22.855Z,62.30
2018-09-09T14:54:51.455Z,59.50
2018-09-09T14:57:19.943Z,59.70
2018-09-09T14:59:48.628Z,59.70
2018-09-09T15:02:17.115Z,60.60
2018-09-09T15:04:46.463Z,58.60
2018-09-09T15:07:14.973Z,60.50
2018-09-09T15:09:43.417Z,60.00
2018-09-09T15:12:11.871Z,58.90
2018-09-09T15:14:40.390Z,59.10
2018-09-09T15:17:08.856Z,59.50
2018-09-09T15:19:37.354Z,59.60
2018-09-09T15:22:05.820Z,58.90
2018-09-09T15:24:34.343Z,59.80
2018-09-09T15:27:02.897Z,59.90
2018-09-09T15:29:31.467Z,60.00
2018-09-09T15:31:59.980Z,60.50
2018-09-09T15:34:28.470Z,62.30
2018-09-09T15:36:56.957Z,60.70
2018-09-09T15:39:25.399Z,60.60
2018-09-09T15:41:53.991Z,60.80
2018-09-09T15:44:22.462Z,60.80
2018-09-09T15:46:50.877Z,61.70
2018-09-09T15:49:19.400Z,61.00
2018-09-09T15:51:48.042Z,61.80
2018-09-09T15:54:16.492Z,62.90
2018-09-09T15:56:45.446Z,63.10
2018-09-09T15:59:13.897Z,64.80
2018-09-09T16:01:42.709Z,63.80
2018-09-09T16:04:11.143Z,64.50
2018-09-09T16:06:39.581Z,64.60
2018-09-09T16:09:09.033Z,64.50
2018-09-09T16:11:37.888Z,65.40
2018-09-09T16:14:06.633Z,65.60
2018-09-09T16:16:35.224Z,65.20
2018-09-09T16:19:03.761Z,66.10
2018-09-09T16:21:32.222Z,66.10
2018-09-09T16:24:00.673Z,66.50
2018-09-09T16:26:29.988Z,64.70
2018-09-09T16:28:58.524Z,63.60
2018-09-09T16:31:26.992Z,64.70
2018-09-09T16:33:55.403Z,62.30
2018-09-09T16:36:23.822Z,61.00
2018-09-09T16:38:52.274Z,61.20
2018-09-09T16:41:20.748Z,60.30
2018-09-09T16:43:49.204Z,60.20
2018-09-09T16:46:17.757Z,60.40
2018-09-09T16:48:46.447Z,60.90
2018-09-09T16:51:14.903Z,61.60
2018-09-09T16:53:43.393Z,60.40
2018-09-09T16:56:11.866Z,59.40
2018-09-09T16:58:40.377Z,60.40
2018-09-09T17:01:08.943Z,59.10
2018-09-09T17:03:37.571Z,59.70
2018-09-09T17:06:06.479Z,59.60
2018-09-09T17:08:35.233Z,59.80
2018-09-09T17:11:03.825Z,60.60
2018-09-09T17:13:32.236Z,60.30
2018-09-09T17:16:00.677Z,62.00
2018-09-09T17:18:29.129Z,61.60
2018-09-09T17:20:57.647Z,61.50
2018-09-09T17:23:26.489Z,61.60
2018-09-09T17:25:55.018Z,62.10
2018-09-09T17:28:23.516Z,62.30
2018-09-09T17:30:52.847Z,60.40
2018-09-09T17:33:21.320Z,62.30
2018-09-09T17:35:49.772Z,66.00
2018-09-09T17:38:18.337Z,67.10
2018-09-09T17:40:46.781Z,65.50
2018-09-09T17:43:15.244Z,69.90
2018-09-09T17:45:43.668Z,72.60
2018-09-09T17:48:12.124Z,73.40
2018-09-09T17:50:40.681Z,74.50
2018-09-09T17:53:09.100Z,75.10
2018-09-09T17:55:38.438Z,76.90
2018-09-09T17:58:06.951Z,77.90
2018-09-09T18:00:35.443Z,77.90
2018-09-09T18:03:04.050Z,79.30
2018-09-09T18:05:32.519Z,79.10
2018-09-09T18:08:00.992Z,81.00
2018-09-09T18:10:29.399Z,81.20
2018-09-09T18:12:57.858Z,81.00
2018-09-09T18:15:26.279Z,80.90
2018-09-09T18:17:54.720Z,80.80
2018-09-09T18:20:23.357Z,80.80
2018-09-09T18:22:51.794Z,82.90
2018-09-09T18:25:20.278Z,82.80
2018-09-09T18:27:48.751Z,82.70
2018-09-09T18:30:17.184Z,83.40
2018-09-09T18:32:45.629Z,82.90
2018-09-09T18:35:14.058Z,84.40
2018-09-09T18:37:42.491Z,85.00
2018-09-09T18:40:10.958Z,84.80
2018-09-09T18:42:39.411Z,86.60
2018-09-09T18:45:08.740Z,87.10
2018-09-09T18:47:37.188Z,87.50
2018-09-09T18:50:05.795Z,87.00
2018-09-09T18:52:34.398Z,87.00
2018-09-09T18:55:02.852Z,87.90
2018-09-09T18:57:31.337Z,87.60
2018-09-09T18:59:59.887Z,87.50
2018-09-09T19:02:28.413Z,87.90
2018-09-09T19:04:56.860Z,89.70
2018-09-09T19:07:25.345Z,89.60
2018-09-09T19:09:53.756Z,90.00
2018-09-09T19:12:22.186Z,90.10
2018-09-09T19:14:50.687Z,89.90
2018-09-09T19:17:19.142Z,89.40
2018-09-09T19:19:47.626Z,89.60
2018-09-09T19:22:16.117Z,89.50
2018-09-09T19:24:44.579Z,90.10
2018-09-09T19:27:13.018Z,89.90
2018-09-09T19:29:41.460Z,89.90
2018-09-09T19:32:09.941Z,89.90
2018-09-09T19:34:38.428Z,89.90
2018-09-09T19:37:06.985Z,88.90
2018-09-09T19:39:35.497Z,90.00
2018-09-09T19:42:03.924Z,90.10
2018-09-09T19:44:32.423Z,90.40
2018-09-09T19:47:00.925Z,90.10
2018-09-09T19:49:29.364Z,88.50
2018-09-09T19:51:57.841Z,89.20
2018-09-09T19:54:26.323Z,87.20
2018-09-09T19:56:54.786Z,88.50
2018-09-09T19:59:23.218Z,87.10
2018-09-09T20:01:51.732Z,86.70
2018-09-09T20:04:20.772Z,86.30
2018-09-09T20:06:49.236Z,87.10
2018-09-09T20:09:17.676Z,86.60
2018-09-09T20:11:46.205Z,85.90
2018-09-09T20:14:14.696Z,86.70
2018-09-09T20:16:43.196Z,86.50
2018-09-09T20:19:11.607Z,86.50
2018-09-09T20:21:40.133Z,85.90
2018-09-09T20:24:08.532Z,85.50
2018-09-09T20:26:36.979Z,85.50
2018-09-09T20:29:05.517Z,84.90
2018-09-09T20:31:34.020Z,85.70
2018-09-09T20:34:02.460Z,85.90
2018-09-09T20:36:31.014Z,86.20
2018-09-09T20:38:59.426Z,85.70
2018-09-09T20:41:28.616Z,85.50
2018-09-09T20:43:57.210Z,85.30
2018-09-09T20:46:25.659Z,87.30
2018-09-09T20:48:54.128Z,87.80
2018-09-09T20:51:22.598Z,87.70
2018-09-09T20:53:51.088Z,87.70
2018-09-09T20:56:19.508Z,87.80
2018-09-09T20:58:47.967Z,89.40
2018-09-09T21:01:16.361Z,87.00
2018-09-09T21:03:44.818Z,87.10
2018-09-09T21:06:13.364Z,86.90
2018-09-09T21:08:41.893Z,87.70
2018-09-09T21:11:10.277Z,88.80
2018-09-09T21:13:38.756Z,90.00
2018-09-09T21:16:07.301Z,87.60
2018-09-09T21:18:35.737Z,87.40
2018-09-09T21:21:04.216Z,87.90
2018-09-09T21:23:32.698Z,87.80
2018-09-09T21:26:02.062Z,88.00
2018-09-09T21:28:30.481Z,87.80
2018-09-09T21:30:58.925Z,88.00
2018-09-09T21:33:27.336Z,87.90
2018-09-09T21:35:55.775Z,88.20
2018-09-09T21:38:24.215Z,88.70
2018-09-09T21:40:53.476Z,90.00
2018-09-09T21:43:21.987Z,89.90
2018-09-09T21:45:50.549Z,89.00
2018-09-09T21:48:18.946Z,88.60
2018-09-09T21:50:47.945Z,89.10
2018-09-09T21:53:16.411Z,89.00
2018-09-09T21:55:44.795Z,90.10
2018-09-09T21:58:13.223Z,90.40
2018-09-09T22:00:47.009Z,89.80
2018-09-09T22:03:15.456Z,89.20
2018-09-09T22:05:44.028Z,89.80
2018-09-09T22:08:12.452Z,89.60
2018-09-09T22:10:40.863Z,89.60
2018-09-09T22:13:09.310Z,89.70
2018-09-09T22:15:37.759Z,89.70
2018-09-09T22:18:06.212Z,90.10
2018-09-09T22:20:34.658Z,90.30
2018-09-09T22:23:03.183Z,90.10
2018-09-09T22:25:31.664Z,90.20
2018-09-09T22:28:00.824Z,90.20
2018-09-09T22:30:29.312Z,90.80
2018-09-09T22:32:57.760Z,90.70
2018-09-09T22:35:26.171Z,90.60
2018-09-09T22:37:54.600Z,90.50
2018-09-09T22:40:23.027Z,90.70
2018-09-09T22:42:51.496Z,90.90
2018-09-09T22:45:19.936Z,90.90
2018-09-09T22:47:48.397Z,90.90
2018-09-09T22:50:16.837Z,91.10
2018-09-09T22:52:45.282Z,91.60
2018-09-09T22:55:13.716Z,91.80
2018-09-09T22:57:42.179Z,92.30
2018-09-09T23:00:10.636Z,92.40
2018-09-09T23:02:39.059Z,92.90
2018-09-09T23:05:07.505Z,92.80
2018-09-09T23:07:35.938Z,93.60
2018-09-09T23:10:04.421Z,93.10
2018-09-09T23:12:32.865Z,93.30
2018-09-09T23:15:01.324Z,93.80
2018-09-09T23:17:29.764Z,93.90
2018-09-09T23:19:58.297Z,93.90
2018-09-09T23:22:26.743Z,93.90
2018-09-09T23:24:55.208Z,94.10
2018-09-09T23:27:23.676Z,94.30
2018-09-09T23:29:52.119Z,94.50
2018-09-09T23:32:20.582Z,94.40
2018-09-09T23:34:49.019Z,94.70
2018-09-09T23:37:17.586Z,94.70
2018-09-09T23:39:46.125Z,94.60
2018-09-09T23:42:14.559Z,94.70
2018-09-09T23:44:42.986Z,94.70
2018-09-09T23:47:11.450Z,94.80
2018-09-09T23:49:39.872Z,94.80
2018-09-09T23:52:08.258Z,95.20
2018-09-09T23:54:36.737Z,95.20
2018-09-09T23:57:05.172Z,95.50
2018-09-09T23:59:33.615Z,95.70
